sensor_id;sensor_type;location;lat;lon;timestamp;pressure;altitude;pressure_sealevel;temperature;humidity
79461;BME280;68929;42.666;23.324;2023-06-22T00:00:54;94971.38;;;20.72;66.34
79461;BME280;68929;42.666;23.324;2023-06-22T00:03:21;94972.19;;;20.83;66.62
79461;BME280;68929;42.666;23.324;2023-06-22T00:05:47;94964.41;;;20.76;66.76
79461;BME280;68929;42.666;23.324;2023-06-22T00:08:13;94971.66;;;20.76;66.42
79461;BME280;68929;42.666;23.324;2023-06-22T00:10:41;94966.53;;;20.64;66.49
79461;BME280;68929;42.666;23.324;2023-06-22T00:13:08;94966.53;;;20.49;66.62
79461;BME280;68929;42.666;23.324;2023-06-22T00:15:34;94950.06;;;20.15;66.55
79461;BME280;68929;42.666;23.324;2023-06-22T00:18:00;94949.22;;;19.89;67.21
79461;BME280;68929;42.666;23.324;2023-06-22T00:20:26;94966.16;;;20.15;67.44
79461;BME280;68929;42.666;23.324;2023-06-22T00:22:56;94934.50;;;20.12;67.21
79461;BME280;68929;42.666;23.324;2023-06-22T00:25:22;94949.78;;;20.02;68.07
79461;BME280;68929;42.666;23.324;2023-06-22T00:27:49;94949.53;;;20.08;67.54
79461;BME280;68929;42.666;23.324;2023-06-22T00:30:18;94910.56;;;19.90;68.20
79461;BME280;68929;42.666;23.324;2023-06-22T00:32:44;94940.13;;;20.06;68.10
79461;BME280;68929;42.666;23.324;2023-06-22T00:35:11;94922.34;;;19.84;68.50
79461;BME280;68929;42.666;23.324;2023-06-22T00:37:37;94937.38;;;19.90;69.03
79461;BME280;68929;42.666;23.324;2023-06-22T00:40:06;94932.59;;;19.98;68.20
79461;BME280;68929;42.666;23.324;2023-06-22T00:42:32;94944.44;;;20.12;67.87
79461;BME280;68929;42.666;23.324;2023-06-22T00:44:57;94922.38;;;19.94;68.03
79461;BME280;68929;42.666;23.324;2023-06-22T00:47:23;94943.63;;;20.11;68.07
79461;BME280;68929;42.666;23.324;2023-06-22T00:49:49;94942.81;;;20.06;68.83
79461;BME280;68929;42.666;23.324;2023-06-22T00:52:20;94932.31;;;19.94;68.83
79461;BME280;68929;42.666;23.324;2023-06-22T00:54:47;94949.78;;;20.02;68.84
79461;BME280;68929;42.666;23.324;2023-06-22T00:57:14;94952.75;;;20.15;67.91
79461;BME280;68929;42.666;23.324;2023-06-22T00:59:47;94942.28;;;20.14;67.36
79461;BME280;68929;42.666;23.324;2023-06-22T01:02:13;94947.66;;;20.19;68.09
79461;BME280;68929;42.666;23.324;2023-06-22T01:04:40;94960.03;;;20.20;67.95
79461;BME280;68929;42.666;23.324;2023-06-22T01:12:17;94953.63;;;20.41;67.14
79461;BME280;68929;42.666;23.324;2023-06-22T01:14:47;94931.34;;;20.30;66.30
79461;BME280;68929;42.666;23.324;2023-06-22T01:17:17;94960.59;;;20.27;67.46
79461;BME280;68929;42.666;23.324;2023-06-22T01:19:45;94935.28;;;20.03;67.22
79461;BME280;68929;42.666;23.324;2023-06-22T01:22:22;94959.47;;;20.13;67.50
79461;BME280;68929;42.666;23.324;2023-06-22T01:24:57;94960.59;;;20.27;67.06
79461;BME280;68929;42.666;23.324;2023-06-22T01:27:39;94949.06;;;20.31;67.43
79461;BME280;68929;42.666;23.324;2023-06-22T01:30:11;94960.91;;;20.45;67.02
79461;BME280;68929;42.666;23.324;2023-06-22T01:32:40;94969.75;;;20.46;66.52
79461;BME280;68929;42.666;23.324;2023-06-22T01:35:07;94951.97;;;20.15;67.67
79461;BME280;68929;42.666;23.324;2023-06-22T01:37:34;94970.56;;;20.41;67.02
79461;BME280;68929;42.666;23.324;2023-06-22T01:40:04;94949.31;;;20.25;66.75
79461;BME280;68929;42.666;23.324;2023-06-22T01:42:34;94964.56;;;20.14;67.81
79461;BME280;68929;42.666;23.324;2023-06-22T01:45:00;94968.06;;;20.15;67.10
79461;BME280;68929;42.666;23.324;2023-06-22T01:47:27;94984.19;;;20.20;68.02
79461;BME280;68929;42.666;23.324;2023-06-22T01:49:53;94958.66;;;20.17;67.78
79461;BME280;68929;42.666;23.324;2023-06-22T01:52:21;94965.94;;;20.22;67.72
79461;BME280;68929;42.666;23.324;2023-06-22T01:54:47;94981.28;;;20.31;66.98
79461;BME280;68929;42.666;23.324;2023-06-22T01:57:13;94984.19;;;20.20;67.11
79461;BME280;68929;42.666;23.324;2023-06-22T02:00:10;94985.84;;;20.31;66.17
79461;BME280;68929;42.666;23.324;2023-06-22T02:02:43;94971.06;;;20.28;67.16
79461;BME280;68929;42.666;23.324;2023-06-22T02:05:16;94989.09;;;20.38;66.56
79461;BME280;68929;42.666;23.324;2023-06-22T02:07:47;94989.31;;;20.21;67.03
79461;BME280;68929;42.666;23.324;2023-06-22T02:10:16;94991.19;;;20.26;66.77
79461;BME280;68929;42.666;23.324;2023-06-22T02:12:45;94999.81;;;20.33;66.74
79461;BME280;68929;42.666;23.324;2023-06-22T02:15:11;94967.53;;;20.13;66.74
79461;BME280;68929;42.666;23.324;2023-06-22T02:17:38;94965.16;;;20.26;66.16
79461;BME280;68929;42.666;23.324;2023-06-22T02:20:04;94954.16;;;20.23;65.89
79461;BME280;68929;42.666;23.324;2023-06-22T02:22:34;94958.47;;;20.34;65.62
79461;BME280;68929;42.666;23.324;2023-06-22T02:24:59;94983.16;;;20.31;66.06
79461;BME280;68929;42.666;23.324;2023-06-22T02:27:24;94976.63;;;20.12;65.84
79461;BME280;68929;42.666;23.324;2023-06-22T02:29:50;94984.19;;;20.20;66.05
79461;BME280;68929;42.666;23.324;2023-06-22T02:32:15;94967.28;;;20.19;66.49
79461;BME280;68929;42.666;23.324;2023-06-22T02:34:42;94978.06;;;20.29;66.46
79461;BME280;68929;42.666;23.324;2023-06-22T02:37:08;94968.66;;;20.32;65.91
79461;BME280;68929;42.666;23.324;2023-06-22T02:39:33;94981.81;;;20.28;66.59
79461;BME280;68929;42.666;23.324;2023-06-22T02:41:58;94960.84;;;20.20;66.77
79461;BME280;68929;42.666;23.324;2023-06-22T02:44:24;94974.50;;;20.09;67.08
79461;BME280;68929;42.666;23.324;2023-06-22T02:46:49;94971.81;;;20.09;67.33
79461;BME280;68929;42.666;23.324;2023-06-22T02:49:15;94982.53;;;20.09;67.59
79461;BME280;68929;42.666;23.324;2023-06-22T02:51:44;94974.44;;;19.93;67.60
79461;BME280;68929;42.666;23.324;2023-06-22T02:54:09;94990.00;;;19.97;67.99
79461;BME280;68929;42.666;23.324;2023-06-22T02:56:35;94965.28;;;19.84;67.97
79461;BME280;68929;42.666;23.324;2023-06-22T02:59:02;94977.44;;;20.12;67.25
79461;BME280;68929;42.666;23.324;2023-06-22T03:01:28;94977.78;;;20.21;67.16
79461;BME280;68929;42.666;23.324;2023-06-22T03:03:55;94985.16;;;19.99;67.47
79461;BME280;68929;42.666;23.324;2023-06-22T03:06:21;94985.75;;;20.06;67.80
79461;BME280;68929;42.666;23.324;2023-06-22T03:09:01;94976.06;;;20.00;67.77
79461;BME280;68929;42.666;23.324;2023-06-22T03:11:28;94983.00;;;19.85;68.06
79461;BME280;68929;42.666;23.324;2023-06-22T03:13:54;94995.63;;;19.90;68.06
79461;BME280;68929;42.666;23.324;2023-06-22T03:16:19;95006.09;;;19.97;68.25
79461;BME280;68929;42.666;23.324;2023-06-22T03:18:45;94999.16;;;20.06;68.04
79461;BME280;68929;42.666;23.324;2023-06-22T03:21:10;94980.47;;;19.64;68.47
79461;BME280;68929;42.666;23.324;2023-06-22T03:23:36;94999.13;;;19.39;69.11
79461;BME280;68929;42.666;23.324;2023-06-22T03:26:02;94997.13;;;19.24;69.66
79461;BME280;68929;42.666;23.324;2023-06-22T03:28:27;95018.56;;;19.24;69.60
79461;BME280;68929;42.666;23.324;2023-06-22T03:30:53;95012.06;;;19.15;69.93
79461;BME280;68929;42.666;23.324;2023-06-22T03:33:18;95003.50;;;19.18;69.62
79461;BME280;68929;42.666;23.324;2023-06-22T03:35:43;94998.44;;;18.85;70.97
79461;BME280;68929;42.666;23.324;2023-06-22T03:38:09;95019.78;;;18.75;71.19
79461;BME280;68929;42.666;23.324;2023-06-22T03:40:34;95026.06;;;18.85;71.12
79461;BME280;68929;42.666;23.324;2023-06-22T03:42:59;95010.31;;;18.62;70.72
79461;BME280;68929;42.666;23.324;2023-06-22T03:45:25;95003.09;;;18.63;70.69
79461;BME280;68929;42.666;23.324;2023-06-22T03:47:50;95031.16;;;18.87;70.65
79461;BME280;68929;42.666;23.324;2023-06-22T03:50:15;95035.06;;;18.74;71.57
79461;BME280;68929;42.666;23.324;2023-06-22T03:52:41;95039.88;;;18.46;72.25
79461;BME280;68929;42.666;23.324;2023-06-22T03:55:07;95036.47;;;18.55;73.16
79461;BME280;68929;42.666;23.324;2023-06-22T03:57:33;95006.44;;;18.26;72.91
79461;BME280;68929;42.666;23.324;2023-06-22T03:59:58;95028.03;;;18.42;72.33
79461;BME280;68929;42.666;23.324;2023-06-22T04:02:24;95037.00;;;18.52;72.44
79461;BME280;68929;42.666;23.324;2023-06-22T04:04:49;95021.56;;;18.38;72.70
79461;BME280;68929;42.666;23.324;2023-06-22T04:07:15;95045.06;;;18.57;72.09
79461;BME280;68929;42.666;23.324;2023-06-22T04:09:40;95048.00;;;18.56;72.88
79461;BME280;68929;42.666;23.324;2023-06-22T04:12:06;95036.16;;;18.78;72.50
79461;BME280;68929;42.666;23.324;2023-06-22T04:14:41;95016.34;;;18.79;71.58
79461;BME280;68929;42.666;23.324;2023-06-22T04:17:07;95017.97;;;19.17;69.68
79461;BME280;68929;42.666;23.324;2023-06-22T04:19:32;95024.03;;;19.81;68.75
79461;BME280;68929;42.666;23.324;2023-06-22T04:21:58;95021.13;;;20.03;68.35
79461;BME280;68929;42.666;23.324;2023-06-22T04:24:24;94993.13;;;19.73;68.31
79461;BME280;68929;42.666;23.324;2023-06-22T04:26:49;95015.41;;;20.46;67.01
79461;BME280;68929;42.666;23.324;2023-06-22T04:29:18;94995.03;;;20.60;66.66
79461;BME280;68929;42.666;23.324;2023-06-22T04:31:44;94993.41;;;20.99;65.48
79461;BME280;68929;42.666;23.324;2023-06-22T04:34:09;94980.53;;;20.81;64.93
79461;BME280;68929;42.666;23.324;2023-06-22T04:36:39;94989.66;;;21.20;64.81
79461;BME280;68929;42.666;23.324;2023-06-22T04:39:06;94978.66;;;21.17;63.97
79461;BME280;68929;42.666;23.324;2023-06-22T04:41:35;94999.28;;;21.46;63.13
79461;BME280;68929;42.666;23.324;2023-06-22T04:44:14;95010.50;;;21.94;61.99
79461;BME280;68929;42.666;23.324;2023-06-22T04:46:50;95007.19;;;22.12;61.05
79461;BME280;68929;42.666;23.324;2023-06-22T04:49:20;94998.06;;;22.03;60.90
79461;BME280;68929;42.666;23.324;2023-06-22T04:51:45;94986.06;;;21.70;60.90
79461;BME280;68929;42.666;23.324;2023-06-22T04:54:11;95015.31;;;22.07;60.45
79461;BME280;68929;42.666;23.324;2023-06-22T04:56:37;95014.97;;;22.23;59.44
79461;BME280;68929;42.666;23.324;2023-06-22T04:59:08;95026.50;;;22.24;59.60
79461;BME280;68929;42.666;23.324;2023-06-22T05:01:33;95026.03;;;22.12;59.77
79461;BME280;68929;42.666;23.324;2023-06-22T05:04:00;95022.44;;;22.32;59.80
79461;BME280;68929;42.666;23.324;2023-06-22T05:06:26;95025.63;;;22.39;60.19
79461;BME280;68929;42.666;23.324;2023-06-22T05:08:53;95017.75;;;21.98;60.51
79461;BME280;68929;42.666;23.324;2023-06-22T05:11:25;94935.56;;;21.47;59.47
79461;BME280;68929;42.666;23.324;2023-06-22T05:13:51;95011.69;;;22.32;58.81
79461;BME280;68929;42.666;23.324;2023-06-22T05:16:17;95010.44;;;22.58;57.79
79461;BME280;68929;42.666;23.324;2023-06-22T05:18:42;95011.50;;;22.08;58.68
79461;BME280;68929;42.666;23.324;2023-06-22T05:21:08;94993.59;;;22.37;57.43
79461;BME280;68929;42.666;23.324;2023-06-22T05:23:34;95022.44;;;22.32;59.36
79461;BME280;68929;42.666;23.324;2023-06-22T05:25:59;95012.28;;;22.18;58.53
79461;BME280;68929;42.666;23.324;2023-06-22T05:28:25;95005.66;;;21.96;58.99
79461;BME280;68929;42.666;23.324;2023-06-22T05:30:50;95010.06;;;21.57;60.79
79461;BME280;68929;42.666;23.324;2023-06-22T05:33:16;95023.44;;;21.92;60.26
79461;BME280;68929;42.666;23.324;2023-06-22T05:35:41;95021.47;;;22.12;59.92
79461;BME280;68929;42.666;23.324;2023-06-22T05:38:07;95025.28;;;22.60;57.76
79461;BME280;68929;42.666;23.324;2023-06-22T05:40:32;95037.88;;;23.09;56.65
79461;BME280;68929;42.666;23.324;2023-06-22T05:42:58;95042.53;;;23.32;56.86
79461;BME280;68929;42.666;23.324;2023-06-22T05:45:24;95059.16;;;23.49;55.82
79461;BME280;68929;42.666;23.324;2023-06-22T05:47:50;95060.25;;;23.43;56.48
79461;BME280;68929;42.666;23.324;2023-06-22T05:50:15;95046.19;;;23.51;56.02
79461;BME280;68929;42.666;23.324;2023-06-22T05:52:40;95053.34;;;23.32;56.10
79461;BME280;68929;42.666;23.324;2023-06-22T05:55:06;95055.63;;;23.77;56.25
79461;BME280;68929;42.666;23.324;2023-06-22T05:57:31;95058.34;;;24.24;55.93
79461;BME280;68929;42.666;23.324;2023-06-22T05:59:57;95060.59;;;24.41;54.71
79461;BME280;68929;42.666;23.324;2023-06-22T06:02:22;95061.38;;;23.94;55.46
79461;BME280;68929;42.666;23.324;2023-06-22T06:04:48;95042.66;;;24.26;54.57
79461;BME280;68929;42.666;23.324;2023-06-22T06:07:13;95058.56;;;24.09;55.23
79461;BME280;68929;42.666;23.324;2023-06-22T06:09:39;95027.09;;;24.60;55.13
79461;BME280;68929;42.666;23.324;2023-06-22T06:12:04;95028.22;;;24.78;53.47
79461;BME280;68929;42.666;23.324;2023-06-22T06:14:30;95040.25;;;25.23;53.12
79461;BME280;68929;42.666;23.324;2023-06-22T06:16:55;95045.19;;;25.53;52.31
79461;BME280;68929;42.666;23.324;2023-06-22T06:19:20;95020.84;;;24.84;53.20
79461;BME280;68929;42.666;23.324;2023-06-22T06:21:46;95032.13;;;25.23;51.65
79461;BME280;68929;42.666;23.324;2023-06-22T06:24:11;95025.06;;;25.41;50.85
79461;BME280;68929;42.666;23.324;2023-06-22T06:26:37;95039.94;;;26.02;50.80
79461;BME280;68929;42.666;23.324;2023-06-22T06:29:02;95021.91;;;25.52;50.71
79461;BME280;68929;42.666;23.324;2023-06-22T06:31:28;95041.78;;;25.61;50.37
79461;BME280;68929;42.666;23.324;2023-06-22T06:33:54;95033.09;;;25.91;49.44
79461;BME280;68929;42.666;23.324;2023-06-22T06:36:23;95029.59;;;26.04;49.17
79461;BME280;68929;42.666;23.324;2023-06-22T06:38:49;95011.88;;;26.26;48.48
79461;BME280;68929;42.666;23.324;2023-06-22T06:41:15;95028.84;;;26.18;49.88
79461;BME280;68929;42.666;23.324;2023-06-22T06:43:41;95019.72;;;26.13;49.77
79461;BME280;68929;42.666;23.324;2023-06-22T06:46:08;95005.72;;;25.93;50.29
79461;BME280;68929;42.666;23.324;2023-06-22T06:48:39;95010.72;;;25.99;50.84
79461;BME280;68929;42.666;23.324;2023-06-22T06:51:05;95020.75;;;25.85;50.62
79461;BME280;68929;42.666;23.324;2023-06-22T06:53:30;95008.38;;;26.11;49.94
79461;BME280;68929;42.666;23.324;2023-06-22T06:55:56;94994.69;;;26.17;50.36
79461;BME280;68929;42.666;23.324;2023-06-22T06:58:22;95016.03;;;26.59;51.29
79461;BME280;68929;42.666;23.324;2023-06-22T07:00:48;94998.91;;;26.23;49.81
79461;BME280;68929;42.666;23.324;2023-06-22T07:03:14;95017.16;;;26.44;50.31
79461;BME280;68929;42.666;23.324;2023-06-22T07:05:39;95015.25;;;26.94;48.88
79461;BME280;68929;42.666;23.324;2023-06-22T07:08:04;95000.31;;;27.41;46.95
79461;BME280;68929;42.666;23.324;2023-06-22T07:10:33;95013.84;;;28.33;46.50
79461;BME280;68929;42.666;23.324;2023-06-22T07:13:00;95003.38;;;28.57;45.67
79461;BME280;68929;42.666;23.324;2023-06-22T07:15:27;95017.16;;;28.61;44.07
79461;BME280;68929;42.666;23.324;2023-06-22T07:17:52;95011.69;;;27.74;46.69
79461;BME280;68929;42.666;23.324;2023-06-22T07:20:17;95003.84;;;28.03;46.47
79461;BME280;68929;42.666;23.324;2023-06-22T07:22:44;95011.97;;;28.42;45.33
79461;BME280;68929;42.666;23.324;2023-06-22T07:25:10;95020.53;;;28.75;45.70
79461;BME280;68929;42.666;23.324;2023-06-22T07:28:05;95009.25;;;28.42;44.18
79461;BME280;68929;42.666;23.324;2023-06-22T07:30:32;94997.94;;;28.57;44.58
79461;BME280;68929;42.666;23.324;2023-06-22T07:32:58;95014.13;;;28.79;43.77
79461;BME280;68929;42.666;23.324;2023-06-22T07:35:24;95019.75;;;28.74;43.19
79461;BME280;68929;42.666;23.324;2023-06-22T07:38:01;95014.91;;;28.71;42.54
79461;BME280;68929;42.666;23.324;2023-06-22T07:40:27;95019.75;;;28.91;42.01
79461;BME280;68929;42.666;23.324;2023-06-22T07:42:52;95022.47;;;28.83;43.09
79461;BME280;68929;42.666;23.324;2023-06-22T07:45:18;94994.63;;;28.86;43.20
79461;BME280;68929;42.666;23.324;2023-06-22T07:47:44;95030.44;;;28.71;43.28
79461;BME280;68929;42.666;23.324;2023-06-22T07:50:10;95022.31;;;28.96;42.36
79461;BME280;68929;42.666;23.324;2023-06-22T07:52:35;95013.66;;;28.94;42.80
79461;BME280;68929;42.666;23.324;2023-06-22T07:55:01;95021.69;;;28.99;42.20
79461;BME280;68929;42.666;23.324;2023-06-22T07:57:27;95020.25;;;29.28;41.34
79461;BME280;68929;42.666;23.324;2023-06-22T08:00:02;95014.00;;;29.36;42.11
79461;BME280;68929;42.666;23.324;2023-06-22T08:02:29;95015.88;;;29.78;42.30
79461;BME280;68929;42.666;23.324;2023-06-22T08:04:54;95011.22;;;29.61;41.77
79461;BME280;68929;42.666;23.324;2023-06-22T08:07:20;95010.28;;;29.57;41.96
79461;BME280;68929;42.666;23.324;2023-06-22T08:09:48;94997.03;;;29.21;42.13
79461;BME280;68929;42.666;23.324;2023-06-22T08:12:14;95004.06;;;29.05;42.64
79461;BME280;68929;42.666;23.324;2023-06-22T08:14:42;94996.56;;;29.28;43.41
79461;BME280;68929;42.666;23.324;2023-06-22T08:17:09;94989.66;;;29.31;42.97
79461;BME280;68929;42.666;23.324;2023-06-22T08:19:34;94996.84;;;29.44;43.09
79461;BME280;68929;42.666;23.324;2023-06-22T08:22:00;94990.94;;;29.07;44.76
79461;BME280;68929;42.666;23.324;2023-06-22T08:24:25;94983.88;;;28.89;44.15
79461;BME280;68929;42.666;23.324;2023-06-22T08:26:55;94985.31;;;29.12;43.60
79461;BME280;68929;42.666;23.324;2023-06-22T08:29:20;94992.38;;;29.05;43.84
79461;BME280;68929;42.666;23.324;2023-06-22T08:31:46;94988.69;;;28.92;43.88
79461;BME280;68929;42.666;23.324;2023-06-22T08:34:11;94988.69;;;28.92;44.45
79461;BME280;68929;42.666;23.324;2023-06-22T08:36:37;94983.25;;;28.75;44.26
79461;BME280;68929;42.666;23.324;2023-06-22T08:39:13;94982.63;;;28.78;43.74
79461;BME280;68929;42.666;23.324;2023-06-22T08:41:39;94983.19;;;28.41;45.47
79461;BME280;68929;42.666;23.324;2023-06-22T08:44:04;94983.44;;;28.31;46.24
79461;BME280;68929;42.666;23.324;2023-06-22T08:46:30;94985.84;;;28.24;46.03
79461;BME280;68929;42.666;23.324;2023-06-22T08:48:57;95004.34;;;28.61;45.38
79461;BME280;68929;42.666;23.324;2023-06-22T08:51:23;94998.91;;;28.61;46.25
79461;BME280;68929;42.666;23.324;2023-06-22T08:53:48;94997.19;;;29.08;43.08
79461;BME280;68929;42.666;23.324;2023-06-22T08:56:14;94991.09;;;29.28;43.08
79461;BME280;68929;42.666;23.324;2023-06-22T08:58:39;94980.94;;;29.63;42.43
79461;BME280;68929;42.666;23.324;2023-06-22T09:01:04;94977.78;;;29.98;41.86
79461;BME280;68929;42.666;23.324;2023-06-22T09:03:32;94988.75;;;30.19;39.73
79461;BME280;68929;42.666;23.324;2023-06-22T09:06:03;94972.47;;;30.40;41.42
79461;BME280;68929;42.666;23.324;2023-06-22T09:08:28;94966.00;;;30.73;40.13
79461;BME280;68929;42.666;23.324;2023-06-22T09:10:55;94960.97;;;31.05;40.49
79461;BME280;68929;42.666;23.324;2023-06-22T09:13:32;94960.16;;;31.04;39.95
79461;BME280;68929;42.666;23.324;2023-06-22T09:15:58;94979.56;;;31.23;39.79
79461;BME280;68929;42.666;23.324;2023-06-22T09:18:23;94951.75;;;31.09;36.70
79461;BME280;68929;42.666;23.324;2023-06-22T09:20:48;94966.41;;;30.63;36.20
79461;BME280;68929;42.666;23.324;2023-06-22T09:23:17;94971.72;;;30.81;38.21
79461;BME280;68929;42.666;23.324;2023-06-22T09:25:43;94960.81;;;30.81;37.35
79461;BME280;68929;42.666;23.324;2023-06-22T09:28:08;94973.50;;;30.85;37.91
79461;BME280;68929;42.666;23.324;2023-06-22T09:30:33;94983.06;;;31.12;37.78
79461;BME280;68929;42.666;23.324;2023-06-22T09:32:59;94986.91;;;31.11;37.25
79461;BME280;68929;42.666;23.324;2023-06-22T09:35:25;94964.47;;;31.26;37.59
79461;BME280;68929;42.666;23.324;2023-06-22T09:37:50;94971.56;;;31.39;36.25
79461;BME280;68929;42.666;23.324;2023-06-22T09:40:29;94965.44;;;31.42;36.18
79461;BME280;68929;42.666;23.324;2023-06-22T09:42:54;94987.63;;;31.73;35.62
79461;BME280;68929;42.666;23.324;2023-06-22T09:45:19;94988.88;;;31.76;36.68
79461;BME280;68929;42.666;23.324;2023-06-22T09:47:45;94981.72;;;31.18;36.51
79461;BME280;68929;42.666;23.324;2023-06-22T09:50:12;94964.66;;;31.41;36.41
79461;BME280;68929;42.666;23.324;2023-06-22T09:52:38;94970.13;;;31.86;36.98
79461;BME280;68929;42.666;23.324;2023-06-22T09:55:03;94967.47;;;32.47;36.49
79461;BME280;68929;42.666;23.324;2023-06-22T09:57:29;94953.75;;;32.59;35.92
79461;BME280;68929;42.666;23.324;2023-06-22T09:59:55;94974.94;;;32.74;37.34
79461;BME280;68929;42.666;23.324;2023-06-22T10:02:21;94960.09;;;32.99;34.90
79461;BME280;68929;42.666;23.324;2023-06-22T10:04:47;94960.38;;;33.49;33.99
79461;BME280;68929;42.666;23.324;2023-06-22T10:07:13;94960.56;;;33.29;33.17
79461;BME280;68929;42.666;23.324;2023-06-22T10:09:38;94973.00;;;33.26;32.87
79461;BME280;68929;42.666;23.324;2023-06-22T10:12:04;94960.22;;;33.73;32.18
79461;BME280;68929;42.666;23.324;2023-06-22T10:14:29;94949.47;;;34.12;33.94
79461;BME280;68929;42.666;23.324;2023-06-22T10:16:55;94943.34;;;34.34;31.86
79461;BME280;68929;42.666;23.324;2023-06-22T10:19:20;94940.03;;;34.75;31.42
79461;BME280;68929;42.666;23.324;2023-06-22T10:21:45;94953.78;;;34.94;30.16
79461;BME280;68929;42.666;23.324;2023-06-22T10:24:11;94947.81;;;35.08;29.78
79461;BME280;68929;42.666;23.324;2023-06-22T10:26:37;94960.50;;;35.51;30.05
79461;BME280;68929;42.666;23.324;2023-06-22T10:29:03;94951.06;;;35.93;29.21
79461;BME280;68929;42.666;23.324;2023-06-22T10:31:29;94947.78;;;36.07;28.89
79461;BME280;68929;42.666;23.324;2023-06-22T10:33:55;94945.28;;;35.98;28.92
79461;BME280;68929;42.666;23.324;2023-06-22T10:36:22;94943.69;;;35.78;29.45
79461;BME280;68929;42.666;23.324;2023-06-22T10:38:48;94940.81;;;36.39;28.39
79461;BME280;68929;42.666;23.324;2023-06-22T10:41:14;94940.66;;;36.77;28.06
79461;BME280;68929;42.666;23.324;2023-06-22T10:43:39;94940.34;;;37.12;27.43
79461;BME280;68929;42.666;23.324;2023-06-22T10:46:04;94915.16;;;37.14;29.35
79461;BME280;68929;42.666;23.324;2023-06-22T10:48:30;94945.31;;;36.73;29.13
79461;BME280;68929;42.666;23.324;2023-06-22T10:50:55;94923.19;;;37.26;28.17
79461;BME280;68929;42.666;23.324;2023-06-22T10:53:21;94934.69;;;37.64;27.52
79461;BME280;68929;42.666;23.324;2023-06-22T10:55:47;94924.94;;;37.41;27.47
79461;BME280;68929;42.666;23.324;2023-06-22T10:58:12;94911.78;;;37.60;27.09
79461;BME280;68929;42.666;23.324;2023-06-22T11:00:37;94920.53;;;38.06;25.66
79461;BME280;68929;42.666;23.324;2023-06-22T11:03:03;94933.44;;;37.95;26.45
79461;BME280;68929;42.666;23.324;2023-06-22T11:05:28;94932.19;;;38.29;25.21
79461;BME280;68929;42.666;23.324;2023-06-22T11:07:56;94930.22;;;37.86;25.33
79461;BME280;68929;42.666;23.324;2023-06-22T11:10:23;94930.72;;;38.46;25.99
79461;BME280;68929;42.666;23.324;2023-06-22T11:12:49;94924.38;;;38.96;25.74
79461;BME280;68929;42.666;23.324;2023-06-22T11:15:17;94899.19;;;38.51;24.42
79461;BME280;68929;42.666;23.324;2023-06-22T11:17:42;94922.88;;;38.52;24.32
79461;BME280;68929;42.666;23.324;2023-06-22T11:20:08;94906.97;;;38.34;24.53
79461;BME280;68929;42.666;23.324;2023-06-22T11:22:38;94894.13;;;38.09;24.71
79461;BME280;68929;42.666;23.324;2023-06-22T11:25:05;94909.06;;;38.04;24.34
79461;BME280;68929;42.666;23.324;2023-06-22T11:27:30;94911.28;;;37.51;25.51
79461;BME280;68929;42.666;23.324;2023-06-22T11:29:55;94916.69;;;36.81;26.88
79461;BME280;68929;42.666;23.324;2023-06-22T11:32:21;94889.00;;;37.67;26.42
79461;BME280;68929;42.666;23.324;2023-06-22T11:34:46;94911.66;;;37.50;27.24
79461;BME280;68929;42.666;23.324;2023-06-22T11:37:11;94893.81;;;36.51;27.87
79461;BME280;68929;42.666;23.324;2023-06-22T11:39:37;94905.97;;;35.56;30.36
79461;BME280;68929;42.666;23.324;2023-06-22T11:42:02;94899.91;;;34.71;30.58
79461;BME280;68929;42.666;23.324;2023-06-22T11:44:28;94903.88;;;34.23;31.30
79461;BME280;68929;42.666;23.324;2023-06-22T11:46:54;94899.22;;;32.66;33.61
79461;BME280;68929;42.666;23.324;2023-06-22T11:49:19;94898.81;;;32.15;34.75
79461;BME280;68929;42.666;23.324;2023-06-22T11:51:44;94888.47;;;32.21;35.28
79461;BME280;68929;42.666;23.324;2023-06-22T11:54:10;94856.66;;;31.92;34.69
79461;BME280;68929;42.666;23.324;2023-06-22T11:56:35;94881.19;;;32.01;34.73
79461;BME280;68929;42.666;23.324;2023-06-22T11:59:00;94870.53;;;31.75;35.24
79461;BME280;68929;42.666;23.324;2023-06-22T12:01:26;94888.56;;;31.88;35.27
79461;BME280;68929;42.666;23.324;2023-06-22T12:03:51;94895.66;;;32.01;33.38
79461;BME280;68929;42.666;23.324;2023-06-22T12:06:23;94870.69;;;32.03;32.51
79461;BME280;68929;42.666;23.324;2023-06-22T12:08:48;94869.22;;;31.81;34.35
79461;BME280;68929;42.666;23.324;2023-06-22T12:11:13;94879.22;;;31.89;34.76
79461;BME280;68929;42.666;23.324;2023-06-22T12:13:39;94900.69;;;31.54;35.20
79461;BME280;68929;42.666;23.324;2023-06-22T12:16:04;94917.16;;;30.60;37.58
79461;BME280;68929;42.666;23.324;2023-06-22T12:18:30;94906.41;;;30.05;39.62
79461;BME280;68929;42.666;23.324;2023-06-22T12:20:55;94895.38;;;29.64;40.54
79461;BME280;68929;42.666;23.324;2023-06-22T12:23:20;94892.28;;;29.10;42.39
79461;BME280;68929;42.666;23.324;2023-06-22T12:25:46;94904.53;;;28.70;43.27
79461;BME280;68929;42.666;23.324;2023-06-22T12:28:11;94890.97;;;27.97;46.34
79461;BME280;68929;42.666;23.324;2023-06-22T12:30:37;94888.72;;;27.51;45.06
79461;BME280;68929;42.666;23.324;2023-06-22T12:33:02;94919.81;;;27.36;48.18
79461;BME280;68929;42.666;23.324;2023-06-22T12:35:27;94934.47;;;27.35;48.03
79461;BME280;68929;42.666;23.324;2023-06-22T12:37:53;94948.66;;;27.10;50.47
79461;BME280;68929;42.666;23.324;2023-06-22T12:40:23;94944.91;;;26.98;51.21
79461;BME280;68929;42.666;23.324;2023-06-22T12:42:49;94943.19;;;26.79;51.96
79461;BME280;68929;42.666;23.324;2023-06-22T12:45:14;94920.41;;;26.31;53.99
79461;BME280;68929;42.666;23.324;2023-06-22T12:47:40;94947.16;;;25.97;55.07
79461;BME280;68929;42.666;23.324;2023-06-22T12:50:06;94934.09;;;25.58;57.13
79461;BME280;68929;42.666;23.324;2023-06-22T12:52:31;94955.44;;;25.46;57.70